Time;durP1;ratioP1;P1;durP2;ratioP2;P2;SDS_P1;SDS_P2;PMS_P1;PMS_P2;Temp;Humidity;BMP_temperature;BMP_pressure;BME280_temperature;BME280_humidity;BME280_pressure;Samples;Min_cycle;Max_cycle;Signal;HPM_P1;HPM_P2
2023/06/01 00:02:19;;;;;;;8.60;3.50;;;;;;;15.25;100.00;100797.93;106614;1251;72704;-85
2023/06/01 00:04:49;;;;;;;6.50;4.10;;;;;;;15.24;100.00;100796.41;106430;1256;61750;-89
2023/06/01 00:07:17;;;;;;;4.60;2.70;;;;;;;15.25;100.00;100799.35;106342;1251;60107;-87
2023/06/01 00:09:45;;;;;;;13.50;5.00;;;;;;;15.25;100.00;100796.55;106115;1251;73096;-85
2023/06/01 00:12:12;;;;;;;9.50;3.60;;;;;;;15.25;100.00;100793.71;106244;1251;61437;-84
2023/06/01 00:14:40;;;;;;;8.20;3.60;;;;;;;15.25;100.00;100796.88;106730;1251;72734;-84
2023/06/01 00:17:09;;;;;;;7.80;4.00;;;;;;;15.24;100.00;100795.15;106604;1251;59819;-85
2023/06/01 00:19:40;;;;;;;6.00;3.40;;;;;;;15.23;100.00;100798.48;106912;1250;59674;-86
2023/06/01 00:22:08;;;;;;;9.00;4.30;;;;;;;15.19;100.00;100797.00;106611;1257;72750;-86
2023/06/01 00:24:36;;;;;;;7.00;3.30;;;;;;;15.14;100.00;100799.48;106877;1251;62458;-86
2023/06/01 00:27:05;;;;;;;7.40;3.80;;;;;;;15.06;100.00;100796.57;107062;1254;72821;-86
2023/06/01 00:29:32;;;;;;;7.10;3.20;;;;;;;14.98;100.00;100797.52;107141;1251;60885;-86
2023/06/01 00:32:00;;;;;;;6.40;3.50;;;;;;;14.89;100.00;100796.77;107586;1250;59641;-85
2023/06/01 00:34:28;;;;;;;5.30;3.10;;;;;;;14.81;100.00;100796.89;107086;1250;72441;-84
2023/06/01 00:36:55;;;;;;;7.60;3.60;;;;;;;14.73;100.00;100796.95;106806;1257;62453;-81
2023/06/01 00:39:23;;;;;;;12.90;3.70;;;;;;;14.64;100.00;100796.71;106709;1251;72759;-85
2023/06/01 00:41:51;;;;;;;7.60;3.20;;;;;;;14.56;100.00;100796.65;106972;1254;60402;-85
2023/06/01 00:44:18;;;;;;;6.80;3.30;;;;;;;14.49;100.00;100796.39;106323;1251;59825;-86
2023/06/01 00:46:46;;;;;;;12.10;3.90;;;;;;;14.46;100.00;100799.06;106060;1251;71246;-86
2023/06/01 00:49:13;;;;;;;12.40;4.20;;;;;;;14.44;100.00;100800.80;106308;1251;63049;-86
2023/06/01 00:51:41;;;;;;;5.60;3.20;;;;;;;14.44;100.00;100800.83;106546;1253;71421;-84
2023/06/01 00:54:11;;;;;;;5.00;3.00;;;;;;;14.43;100.00;100806.33;106710;1256;62964;-86
2023/06/01 00:56:39;;;;;;;7.90;2.90;;;;;;;14.42;100.00;100811.16;106764;1256;59829;-85
2023/06/01 00:59:07;;;;;;;9.60;3.00;;;;;;;14.42;100.00;100812.00;106731;1251;73029;-86
2023/06/01 01:01:36;;;;;;;6.00;3.10;;;;;;;14.42;100.00;100811.65;106789;1256;63700;-85
2023/06/01 01:04:04;;;;;;;5.70;3.30;;;;;;;14.40;100.00;100812.16;106156;1254;71499;-86
2023/06/01 01:06:34;;;;;;;14.70;5.20;;;;;;;14.38;100.00;100809.84;106479;1251;61691;-87
2023/06/01 01:09:30;;;;;;;6.20;3.30;;;;;;;14.36;100.00;100807.77;106760;1251;59926;-86
2023/06/01 01:12:13;;;;;;;9.20;3.10;;;;;;;14.37;100.00;100806.58;108277;1250;75216;-85
2023/06/01 01:15:08;;;;;;;4.70;2.50;;;;;;;14.43;100.00;100801.98;107315;1251;62309;-85
2023/06/01 01:17:42;;;;;;;5.00;2.40;;;;;;;14.47;100.00;100806.05;106884;1250;71873;-89
2023/06/01 01:20:43;;;;;;;7.90;3.40;;;;;;;14.48;100.00;100811.23;106454;1251;61798;-87
2023/06/01 01:23:38;;;;;;;11.80;3.50;;;;;;;14.44;100.00;100820.67;106666;1251;61181;-86
2023/06/01 01:26:18;;;;;;;7.40;2.90;;;;;;;14.39;100.00;100817.90;107059;1251;73215;-84
2023/06/01 01:28:51;;;;;;;8.80;4.80;;;;;;;14.36;100.00;100819.70;107377;1256;62510;-85
2023/06/01 01:31:23;;;;;;;5.00;3.00;;;;;;;14.33;100.00;100813.02;106744;1251;72790;-86
2023/06/01 01:33:53;;;;;;;7.40;3.40;;;;;;;14.32;100.00;100815.20;106344;1253;60452;-87
2023/06/01 01:36:21;;;;;;;8.80;3.60;;;;;;;14.27;100.00;100812.55;106103;1251;59634;-85
2023/06/01 01:38:49;;;;;;;3.20;2.60;;;;;;;14.25;100.00;100815.02;107578;1251;73105;-86
2023/06/01 01:41:17;;;;;;;3.60;2.40;;;;;;;14.23;100.00;100817.27;107299;1251;63770;-84
2023/06/01 01:43:45;;;;;;;7.60;3.60;;;;;;;14.20;100.00;100818.59;107866;1250;74368;-86
2023/06/01 01:46:26;;;;;;;5.00;3.50;;;;;;;14.16;100.00;100816.57;109830;1251;60796;-86
2023/06/01 01:49:06;;;;;;;7.10;2.70;;;;;;;14.18;100.00;100816.77;108234;1251;59793;-86
2023/06/01 01:52:06;;;;;;;7.10;3.30;;;;;;;14.23;100.00;100816.61;108324;1251;72942;-86
2023/06/01 01:55:11;;;;;;;6.50;2.90;;;;;;;14.27;100.00;100820.14;103133;1292;613389;-85
2023/06/01 01:57:39;;;;;;;7.10;3.10;;;;;;;14.23;100.00;100821.17;105710;1266;61538;-83
2023/06/01 02:00:08;;;;;;;8.40;4.00;;;;;;;14.18;100.00;100824.12;105642;1267;60403;-86
2023/06/01 02:02:46;;;;;;;7.30;3.30;;;;;;;14.13;100.00;100821.84;105771;1266;72236;-86
2023/06/01 02:05:15;;;;;;;10.80;3.50;;;;;;;14.06;100.00;100823.94;105846;1267;63816;-86
2023/06/01 02:07:45;;;;;;;12.30;4.10;;;;;;;13.98;100.00;100827.52;104599;1267;605545;-86
2023/06/01 02:10:12;;;;;;;8.00;3.20;;;;;;;13.87;100.00;100831.30;105149;1269;61820;-88
2023/06/01 02:12:39;;;;;;;6.50;3.30;;;;;;;13.70;100.00;100834.71;105937;1260;60988;-88
2023/06/01 02:15:07;;;;;;;7.90;2.80;;;;;;;13.54;100.00;100837.76;105856;1264;72275;-85
2023/06/01 02:17:34;;;;;;;8.00;4.50;;;;;;;13.41;100.00;100840.05;106025;1266;63790;-85
2023/06/01 02:20:02;;;;;;;10.20;3.80;;;;;;;13.35;100.00;100843.14;106711;1256;72570;-87
2023/06/01 02:22:30;;;;;;;5.70;3.70;;;;;;;13.32;100.00;100844.21;106442;1256;61901;-87
2023/06/01 02:24:57;;;;;;;5.90;3.20;;;;;;;13.30;100.00;100843.50;106307;1254;60152;-84
2023/06/01 02:27:25;;;;;;;9.40;4.00;;;;;;;13.28;100.00;100841.50;105790;1259;72846;-86
2023/06/01 02:29:52;;;;;;;8.90;3.90;;;;;;;13.30;100.00;100834.87;105982;1252;62640;-85
2023/06/01 02:32:20;;;;;;;6.00;3.50;;;;;;;13.30;100.00;100837.31;105992;1253;72716;-86
2023/06/01 02:34:47;;;;;;;6.80;4.10;;;;;;;13.31;100.00;100834.11;106286;1252;59660;-85
2023/06/01 02:37:13;;;;;;;7.40;4.40;;;;;;;13.33;100.00;100836.56;106430;1252;60246;-85
2023/06/01 02:39:41;;;;;;;11.40;4.60;;;;;;;13.35;100.00;100838.34;106697;1253;73091;-85
2023/06/01 02:42:08;;;;;;;12.60;5.30;;;;;;;13.38;100.00;100834.52;108417;1252;62725;-85
2023/06/01 02:44:35;;;;;;;10.50;5.00;;;;;;;13.38;100.00;100833.94;106856;1256;71086;-86
2023/06/01 02:47:02;;;;;;;8.50;3.90;;;;;;;13.38;100.00;100834.48;106526;1257;60768;-85
2023/06/01 02:49:30;;;;;;;10.90;5.90;;;;;;;13.37;100.00;100833.36;106488;1253;60297;-85
2023/06/01 02:51:57;;;;;;;12.60;5.70;;;;;;;13.34;100.00;100832.33;106253;1258;73087;-86
2023/06/01 02:54:25;;;;;;;11.50;5.60;;;;;;;13.28;100.00;100832.33;106579;1253;62561;-86
2023/06/01 02:56:52;;;;;;;8.90;5.00;;;;;;;13.22;100.00;100834.66;106651;1254;71430;-87
2023/06/01 02:59:23;;;;;;;9.10;5.40;;;;;;;13.18;100.00;100836.66;106449;1254;61245;-88
2023/06/01 03:01:55;;;;;;;12.40;5.10;;;;;;;13.17;100.00;100837.96;106773;1253;60178;-86
2023/06/01 03:04:22;;;;;;;13.10;5.50;;;;;;;13.20;100.00;100837.05;106619;1253;72942;-87
2023/06/01 03:06:49;;;;;;;8.00;5.20;;;;;;;13.26;100.00;100837.91;106415;1253;64224;-88
2023/06/01 03:09:32;;;;;;;11.90;5.90;;;;;;;13.32;100.00;100834.36;106038;1260;72587;-86
2023/06/01 03:12:14;;;;;;;11.90;5.50;;;;;;;13.40;100.00;100836.27;105973;1257;62735;-87
2023/06/01 03:14:41;;;;;;;9.20;5.60;;;;;;;13.50;100.00;100845.45;105815;1259;59681;-90
2023/06/01 03:17:08;;;;;;;17.40;5.70;;;;;;;13.63;100.00;100848.95;105878;1253;72110;-89
2023/06/01 03:19:35;;;;;;;9.90;4.80;;;;;;;13.74;100.00;100848.33;105908;1254;63885;-87
2023/06/01 03:22:08;;;;;;;8.20;5.20;;;;;;;13.84;100.00;100848.48;105807;1253;72414;-86
2023/06/01 03:24:36;;;;;;;9.80;4.70;;;;;;;13.94;100.00;100852.02;105950;1256;60752;-88
2023/06/01 03:27:04;;;;;;;10.60;4.60;;;;;;;14.04;100.00;100851.66;105852;1253;59698;-88
2023/06/01 03:29:34;;;;;;;8.10;4.20;;;;;;;14.16;100.00;100858.95;105918;1254;73031;-87
2023/06/01 03:32:01;;;;;;;7.10;4.90;;;;;;;14.29;100.00;100860.14;105927;1254;62283;-89
2023/06/01 03:34:29;;;;;;;14.10;5.50;;;;;;;14.42;100.00;100861.29;106719;1254;72788;-89
2023/06/01 03:36:57;;;;;;;29.40;7.40;;;;;;;14.57;100.00;100863.55;105773;1262;60661;-87
2023/06/01 03:39:26;;;;;;;14.40;6.20;;;;;;;14.69;100.00;100866.02;105758;1256;59798;-87
2023/06/01 03:41:53;;;;;;;15.20;5.40;;;;;;;14.82;100.00;100861.73;105604;1261;73177;-88
2023/06/01 03:44:20;;;;;;;9.30;5.00;;;;;;;14.94;100.00;100859.08;106243;1254;62785;-87
2023/06/01 03:46:47;;;;;;;12.10;5.70;;;;;;;15.06;100.00;100862.10;105951;1260;72647;-87
2023/06/01 03:49:14;;;;;;;13.80;7.70;;;;;;;15.18;100.00;100862.80;106284;1257;59727;-86
2023/06/01 03:51:42;;;;;;;10.40;7.30;;;;;;;15.28;100.00;100865.64;105730;1254;60174;-87
2023/06/01 03:54:09;;;;;;;11.10;7.00;;;;;;;15.40;100.00;100869.75;106629;1254;71844;-86
2023/06/01 03:56:37;;;;;;;10.00;5.50;;;;;;;15.49;100.00;100872.87;106066;1254;63191;-89
2023/06/01 03:59:06;;;;;;;6.00;3.80;;;;;;;15.60;100.00;100871.59;105748;1254;72689;-88
2023/06/01 04:01:36;;;;;;;7.30;3.10;;;;;;;15.68;100.00;100874.63;105903;1254;60524;-89
2023/06/01 04:04:08;;;;;;;5.00;2.80;;;;;;;15.76;100.00;100868.36;105782;1254;59637;-89
2023/06/01 04:06:36;;;;;;;6.60;3.10;;;;;;;15.85;100.00;100869.25;106163;1254;72977;-88
2023/06/01 04:09:07;;;;;;;10.40;3.10;;;;;;;15.95;100.00;100870.46;105933;1254;63767;-86
2023/06/01 04:11:35;;;;;;;6.00;3.60;;;;;;;16.07;100.00;100877.09;105968;1254;72598;-90
2023/06/01 04:14:02;;;;;;;11.50;4.60;;;;;;;16.21;100.00;100879.34;105698;1258;60446;-85
2023/06/01 04:16:29;;;;;;;8.80;3.30;;;;;;;16.37;100.00;100883.17;105651;1262;59686;-87
2023/06/01 04:18:58;;;;;;;6.40;2.40;;;;;;;16.56;100.00;100881.83;105864;1259;72006;-89
2023/06/01 04:21:30;;;;;;;9.30;3.00;;;;;;;16.86;100.00;100884.30;105954;1255;62551;-89
2023/06/01 04:23:57;;;;;;;9.10;2.30;;;;;;;17.28;100.00;100881.06;106116;1254;71788;-88
2023/06/01 04:26:25;;;;;;;10.60;3.00;;;;;;;17.71;100.00;100880.27;106424;1254;60492;-85
2023/06/01 04:28:56;;;;;;;5.20;2.60;;;;;;;18.15;100.00;100886.31;107070;1255;59551;-87
2023/06/01 04:31:24;;;;;;;5.00;1.90;;;;;;;18.60;100.00;100889.63;106279;1258;73144;-86
2023/06/01 04:33:56;;;;;;;6.10;2.80;;;;;;;19.00;100.00;100888.58;105905;1259;63760;-87
2023/06/01 04:36:24;;;;;;;6.10;3.40;;;;;;;19.41;99.99;100883.66;105932;1254;72561;-90
2023/06/01 04:38:58;;;;;;;6.50;2.80;;;;;;;19.86;98.13;100885.48;106010;1254;59740;-87
2023/06/01 04:41:25;;;;;;;2.10;1.40;;;;;;;20.28;93.57;100882.16;106062;1254;59397;-85
2023/06/01 04:43:52;;;;;;;3.80;2.00;;;;;;;20.73;89.83;100879.05;107561;1256;73141;-85
2023/06/01 04:46:24;;;;;;;3.20;1.70;;;;;;;21.18;84.88;100883.86;106252;1260;63912;-87
2023/06/01 04:48:58;;;;;;;2.20;1.60;;;;;;;21.62;80.11;100884.42;109456;1254;71315;-87
2023/06/01 04:51:26;;;;;;;2.20;2.00;;;;;;;22.03;77.13;100887.28;108552;1256;59667;-87
2023/06/01 04:53:54;;;;;;;4.20;1.60;;;;;;;22.41;71.42;100885.41;107290;1254;60183;-86
2023/06/01 04:56:29;;;;;;;4.00;2.00;;;;;;;22.84;65.33;100885.29;106956;1254;72779;-87
2023/06/01 04:58:56;;;;;;;3.80;1.40;;;;;;;23.25;58.04;100883.02;105936;1254;64139;-88
2023/06/01 05:01:29;;;;;;;5.40;1.30;;;;;;;23.50;55.37;100876.83;105953;1254;72766;-89
2023/06/01 05:03:57;;;;;;;4.40;1.90;;;;;;;23.78;56.52;100875.94;105937;1259;60498;-91
2023/06/01 05:06:26;;;;;;;3.70;1.60;;;;;;;24.06;53.00;100876.88;105992;1254;60264;-88
2023/06/01 05:08:53;;;;;;;3.10;1.80;;;;;;;24.38;51.64;100878.27;105949;1254;72922;-89
2023/06/01 05:11:21;;;;;;;2.70;1.40;;;;;;;24.72;49.67;100880.30;105901;1254;62478;-90
2023/06/01 05:13:48;;;;;;;5.30;1.20;;;;;;;25.07;49.12;100875.84;105757;1254;72719;-90
2023/06/01 05:16:15;;;;;;;5.10;1.50;;;;;;;25.37;46.62;100876.86;105836;1259;60483;-88
2023/06/01 05:18:42;;;;;;;3.50;1.90;;;;;;;25.66;45.27;100881.23;105832;1254;60433;-87
2023/06/01 05:21:09;;;;;;;3.30;1.30;;;;;;;25.82;45.17;100876.55;106305;1257;72838;-87
2023/06/01 05:23:36;;;;;;;1.70;1.60;;;;;;;25.97;43.61;100877.20;105889;1256;64004;-87
2023/06/01 05:26:03;;;;;;;3.50;1.60;;;;;;;26.17;44.02;100875.21;105496;1260;72729;-89
2023/06/01 05:28:35;;;;;;;1.50;1.30;;;;;;;26.43;44.08;100883.66;105701;1259;60079;-88
2023/06/01 05:31:04;;;;;;;4.70;1.50;;;;;;;26.65;41.57;100879.38;106107;1254;59698;-86
2023/06/01 05:33:36;;;;;;;3.60;1.40;;;;;;;26.84;39.72;100878.73;106074;1254;73057;-87
2023/06/01 05:36:04;;;;;;;4.00;1.70;;;;;;;27.03;39.32;100875.88;106014;1259;63935;-85
2023/06/01 05:38:32;;;;;;;4.50;1.40;;;;;;;27.22;39.67;100876.72;105747;1254;72683;-86
2023/06/01 05:41:00;;;;;;;2.40;1.60;;;;;;;27.36;38.00;100880.98;105899;1254;60431;-87
2023/06/01 05:43:27;;;;;;;6.30;1.70;;;;;;;27.52;36.82;100878.30;106238;1254;60059;-85
2023/06/01 05:45:54;;;;;;;17.60;1.90;;;;;;;27.64;36.17;100880.25;105937;1261;73059;-86
2023/06/01 06:00:09;;;;;;;5.30;1.50;;;;;;;28.64;34.65;100892.00;103368;1290;601008;-87
2023/06/01 06:02:45;;;;;;;4.20;1.40;;;;;;;28.85;34.33;100892.11;105414;1267;59299;-88
2023/06/01 06:05:14;;;;;;;7.80;1.20;;;;;;;29.02;33.69;100890.55;105317;1266;60755;-89
2023/06/01 06:07:42;;;;;;;4.00;1.80;;;;;;;29.21;33.30;100890.28;105575;1269;73751;-89
2023/06/01 06:10:11;;;;;;;6.90;2.80;;;;;;;29.45;33.42;100889.48;105662;1266;63672;-89
2023/06/01 06:12:40;;;;;;;1.90;1.50;;;;;;;29.68;32.82;100894.27;105326;1256;615345;-90
2023/06/01 06:15:08;;;;;;;2.10;1.50;;;;;;;29.85;32.83;100891.26;105843;1257;60357;-87
2023/06/01 06:17:36;;;;;;;2.00;1.20;;;;;;;30.00;32.52;100886.88;105887;1257;60060;-88
2023/06/01 06:20:07;;;;;;;4.10;1.00;;;;;;;30.13;31.82;100888.56;106128;1256;71522;-88
2023/06/01 06:22:35;;;;;;;5.20;1.40;;;;;;;30.21;31.69;100883.77;106144;1255;63514;-90
2023/06/01 06:25:02;;;;;;;6.30;1.50;;;;;;;30.27;31.86;100889.10;105986;1251;72856;-88
2023/06/01 06:27:30;;;;;;;3.30;1.40;;;;;;;30.34;31.03;100889.45;106115;1251;59835;-91
2023/06/01 06:29:58;;;;;;;3.90;1.80;;;;;;;30.41;30.69;100886.72;106054;1251;59548;-87
2023/06/01 06:32:25;;;;;;;2.90;1.10;;;;;;;30.48;30.93;100883.64;106153;1251;73008;-89
2023/06/01 06:34:53;;;;;;;4.60;1.60;;;;;;;30.64;31.54;100888.11;106145;1256;63958;-89
2023/06/01 06:37:21;;;;;;;8.20;1.30;;;;;;;30.75;30.91;100882.88;106052;1251;71182;-86
2023/06/01 06:39:48;;;;;;;3.00;1.70;;;;;;;30.84;31.18;100879.80;106080;1256;60966;-88
2023/06/01 06:42:16;;;;;;;5.50;1.90;;;;;;;31.03;30.97;100881.48;106044;1255;62327;-86
2023/06/01 06:44:44;;;;;;;5.20;1.70;;;;;;;31.22;30.59;100880.41;105894;1251;73104;-88
2023/06/01 06:47:18;;;;;;;4.50;1.30;;;;;;;31.38;29.99;100880.05;105996;1257;63935;-90
2023/06/01 06:49:46;;;;;;;4.80;1.40;;;;;;;31.54;29.32;100879.36;106068;1251;71942;-89
2023/06/01 06:52:13;;;;;;;9.10;1.30;;;;;;;31.70;28.93;100886.74;106281;1251;60100;-87
2023/06/01 06:54:41;;;;;;;2.80;1.50;;;;;;;31.76;28.33;100883.13;106062;1251;60516;-86
2023/06/01 06:57:09;;;;;;;5.30;1.20;;;;;;;31.78;28.44;100881.19;106052;1251;71808;-87
2023/06/01 06:59:37;;;;;;;2.30;0.90;;;;;;;31.75;29.11;100882.06;106319;1251;62864;-85
2023/06/01 07:02:05;;;;;;;3.10;1.30;;;;;;;31.77;29.83;100879.61;105964;1255;70601;-91
2023/06/01 07:04:33;;;;;;;5.80;1.00;;;;;;;31.77;28.89;100880.11;106002;1253;59704;-87
2023/06/01 07:07:03;;;;;;;2.80;1.50;;;;;;;31.82;28.65;100882.77;105918;1251;59605;-88
2023/06/01 07:09:33;;;;;;;8.30;1.40;;;;;;;31.98;29.13;100878.01;106251;1251;71840;-90
2023/06/01 07:12:00;;;;;;;1.90;1.00;;;;;;;32.04;28.54;100876.41;106004;1251;62253;-88
2023/06/01 07:14:29;;;;;;;4.80;1.10;;;;;;;31.96;28.41;100879.37;105766;1254;72621;-90
2023/06/01 07:16:57;;;;;;;1.60;1.10;;;;;;;31.82;28.30;100879.44;105957;1251;59633;-90
2023/06/01 07:19:25;;;;;;;3.00;1.30;;;;;;;31.70;28.45;100877.77;106086;1254;60040;-91
2023/06/01 07:21:53;;;;;;;1.30;1.10;;;;;;;31.66;28.37;100876.86;106284;1251;71793;-88
2023/06/01 07:24:20;;;;;;;3.20;1.10;;;;;;;31.67;28.67;100877.14;106291;1256;63721;-89
2023/06/01 07:26:51;;;;;;;7.40;1.20;;;;;;;31.52;27.98;100876.55;105935;1257;72755;-90
2023/06/01 07:29:18;;;;;;;1.90;1.00;;;;;;;31.32;28.58;100879.05;106119;1251;60099;-89
2023/06/01 07:31:46;;;;;;;17.20;1.70;;;;;;;31.43;29.59;100874.30;106056;1251;59672;-92
2023/06/01 07:34:14;;;;;;;4.40;1.30;;;;;;;31.61;28.74;100876.38;105938;1258;73232;-88
2023/06/01 07:36:41;;;;;;;4.00;0.70;;;;;;;31.73;28.14;100876.24;105792;1251;62455;-94
2023/06/01 07:39:10;;;;;;;3.60;1.60;;;;;;;31.85;27.86;100873.02;106056;1257;72650;-86
2023/06/01 07:41:39;;;;;;;7.20;1.40;;;;;;;32.03;26.85;100872.36;106012;1254;59683;-87
2023/06/01 07:44:07;;;;;;;2.60;1.40;;;;;;;32.20;26.81;100870.34;106371;1256;59712;-88
2023/06/01 07:46:35;;;;;;;4.00;1.60;;;;;;;32.34;26.81;100869.20;106256;1251;73243;-89
2023/06/01 07:49:03;;;;;;;5.20;1.30;;;;;;;32.52;27.16;100866.45;107127;1251;62789;-88
2023/06/01 07:51:31;;;;;;;3.60;1.30;;;;;;;32.63;27.31;100866.25;109829;1251;72035;-87
2023/06/01 07:53:59;;;;;;;5.10;1.40;;;;;;;32.64;28.30;100865.11;108429;1251;59817;-88
2023/06/01 07:56:28;;;;;;;1.40;1.20;;;;;;;32.67;28.53;100867.37;107465;1256;59590;-88
2023/06/01 07:58:56;;;;;;;2.20;1.50;;;;;;;32.74;27.05;100870.11;107155;1257;71844;-87
2023/06/01 08:01:23;;;;;;;1.50;0.80;;;;;;;32.78;26.05;100865.98;106463;1251;62598;-86
2023/06/01 08:03:51;;;;;;;1.70;1.00;;;;;;;32.84;26.07;100866.81;106954;1251;71913;-90
2023/06/01 08:06:22;;;;;;;4.40;1.30;;;;;;;32.96;26.55;100860.29;106544;1254;59787;-88
2023/06/01 08:08:51;;;;;;;2.80;1.20;;;;;;;33.03;26.32;100860.02;109313;1251;59232;-88
2023/06/01 08:11:18;;;;;;;2.90;0.90;;;;;;;32.96;25.66;100863.43;109617;1251;71846;-86
2023/06/01 08:13:46;;;;;;;2.40;0.90;;;;;;;32.76;26.09;100859.20;109719;1251;62414;-87
2023/06/01 08:16:14;;;;;;;2.90;1.10;;;;;;;32.67;26.79;100857.55;109679;1251;71670;-86
2023/06/01 08:18:42;;;;;;;0.90;0.70;;;;;;;32.74;24.60;100860.70;109596;1251;58992;-88
2023/06/01 08:21:10;;;;;;;1.60;0.90;;;;;;;32.82;25.01;100853.75;109655;1251;60111;-87
2023/06/01 08:23:38;;;;;;;4.20;3.20;;;;;;;32.97;25.30;100854.48;109699;1251;72069;-86
2023/06/01 08:26:12;;;;;;;1.90;1.30;;;;;;;33.15;25.75;100849.67;109574;1252;62954;-90
2023/06/01 08:28:39;;;;;;;6.90;1.30;;;;;;;33.37;25.54;100852.94;109035;1253;71152;-87
2023/06/01 08:31:07;;;;;;;0.90;0.70;;;;;;;33.47;24.08;100851.25;109165;1254;58842;-89
2023/06/01 08:33:37;;;;;;;5.90;1.60;;;;;;;33.43;24.08;100852.59;109355;1252;60173;-86
2023/06/01 08:36:06;;;;;;;2.10;0.90;;;;;;;33.46;23.66;100849.27;108965;1254;73839;-88
2023/06/01 08:38:34;;;;;;;3.30;1.30;;;;;;;33.44;23.00;100851.15;109013;1252;62262;-90
2023/06/01 08:41:04;;;;;;;1.80;0.70;;;;;;;33.41;23.44;100843.46;108466;1253;70868;-86
2023/06/01 08:43:32;;;;;;;2.80;1.00;;;;;;;33.39;23.76;100842.58;108910;1253;59618;-88
2023/06/01 08:46:00;;;;;;;2.20;1.00;;;;;;;33.35;24.07;100843.88;108358;1257;59614;-86
2023/06/01 08:48:32;;;;;;;2.30;1.10;;;;;;;33.33;24.22;100844.30;107158;1254;73533;-88
2023/06/01 08:50:59;;;;;;;2.20;1.00;;;;;;;33.31;23.60;100844.27;106831;1259;63915;-89
2023/06/01 08:53:28;;;;;;;3.50;3.20;;;;;;;33.26;23.78;100842.30;106665;1253;71449;-90
2023/06/01 08:55:56;;;;;;;3.40;1.20;;;;;;;33.26;24.12;100840.61;107049;1257;59653;-91
2023/06/01 08:58:24;;;;;;;3.00;1.40;;;;;;;33.28;24.49;100835.92;106910;1254;62226;-88
2023/06/01 09:00:53;;;;;;;3.80;1.40;;;;;;;33.37;23.99;100832.75;107048;1254;73811;-91
2023/06/01 09:03:21;;;;;;;1.70;1.40;;;;;;;33.45;23.69;100835.70;106454;1258;63045;-88
2023/06/01 09:05:49;;;;;;;1.20;1.10;;;;;;;33.41;23.27;100831.21;106322;1254;71122;-88
2023/06/01 09:08:17;;;;;;;5.40;2.90;;;;;;;33.37;24.17;100831.79;106629;1253;59627;-90
2023/06/01 09:10:45;;;;;;;3.80;1.80;;;;;;;33.26;23.09;100836.05;106028;1252;59711;-92
2023/06/01 09:13:13;;;;;;;2.30;2.10;;;;;;;33.11;22.85;100831.80;106137;1254;71723;-88
2023/06/01 09:15:52;;;;;;;4.80;2.10;;;;;;;32.97;23.15;100833.27;106104;1258;62677;-90
2023/06/01 09:18:20;;;;;;;2.20;0.90;;;;;;;32.90;23.39;100831.61;106904;1254;71499;-90
2023/06/01 09:20:48;;;;;;;3.60;1.10;;;;;;;32.89;23.89;100828.41;106196;1259;60129;-89
2023/06/01 09:23:26;;;;;;;5.30;1.30;;;;;;;32.88;24.31;100823.07;106419;1259;59544;-89
2023/06/01 09:26:13;;;;;;;2.70;1.70;;;;;;;32.72;23.49;100825.79;106386;1254;73046;-90
2023/06/01 09:28:56;;;;;;;1.20;1.10;;;;;;;32.45;23.58;100820.59;105753;1254;62788;-94
2023/06/01 09:31:46;;;;;;;1.90;1.40;;;;;;;32.36;24.15;100821.55;105960;1259;72760;-91
2023/06/01 09:34:19;;;;;;;2.20;1.10;;;;;;;32.46;24.08;100820.75;106084;1257;59656;-86
2023/06/01 09:36:54;;;;;;;2.00;0.80;;;;;;;32.48;23.48;100821.85;106022;1253;60091;-90
2023/06/01 09:39:23;;;;;;;1.60;1.00;;;;;;;32.44;23.83;100817.89;106011;1254;73186;-90
2023/06/01 09:41:58;;;;;;;1.40;0.90;;;;;;;32.48;24.06;100816.04;105988;1254;62256;-90
2023/06/01 09:44:27;;;;;;;1.60;1.30;;;;;;;32.37;23.46;100810.33;106259;1254;71437;-88
2023/06/01 09:47:00;;;;;;;3.90;1.60;;;;;;;32.28;23.94;100811.93;106008;1254;59781;-87
2023/06/01 09:49:34;;;;;;;1.80;1.20;;;;;;;32.39;24.54;100810.86;106244;1260;59759;-89
2023/06/01 09:52:05;;;;;;;2.70;0.90;;;;;;;32.57;24.22;100810.65;105953;1254;71933;-90
2023/06/01 09:54:37;;;;;;;2.10;1.00;;;;;;;32.68;24.55;100809.39;106055;1254;62459;-92
2023/06/01 09:57:06;;;;;;;2.10;1.00;;;;;;;32.78;23.81;100808.20;106174;1259;72626;-89
2023/06/01 09:59:46;;;;;;;3.10;0.90;;;;;;;32.80;24.07;100807.52;106050;1259;59650;-90
2023/06/01 10:02:18;;;;;;;1.70;1.10;;;;;;;32.89;23.57;100808.88;105698;1261;61972;-91
2023/06/01 10:04:52;;;;;;;3.60;3.30;;;;;;;32.89;23.30;100808.92;106213;1257;73111;-93
2023/06/01 10:07:22;;;;;;;5.30;4.20;;;;;;;32.84;23.11;100803.52;106277;1259;62599;-90
2023/06/01 10:09:58;;;;;;;6.00;2.20;;;;;;;32.66;23.04;100806.75;106043;1257;75378;-88
2023/06/01 10:12:27;;;;;;;12.10;11.10;;;;;;;32.57;23.65;100804.14;106197;1256;60511;-92
2023/06/01 10:14:58;;;;;;;3.70;3.40;;;;;;;32.65;23.22;100802.21;105990;1259;60569;-91
2023/06/01 10:17:25;;;;;;;4.80;3.20;;;;;;;32.68;23.17;100801.52;106119;1254;72669;-88
2023/06/01 10:19:53;;;;;;;3.20;1.60;;;;;;;32.79;23.10;100799.02;106242;1256;64238;-92
2023/06/01 10:22:21;;;;;;;7.10;1.70;;;;;;;32.89;22.94;100797.77;106315;1256;72650;-89
2023/06/01 10:24:49;;;;;;;2.30;1.20;;;;;;;32.94;23.37;100794.23;106103;1256;60519;-90
2023/06/01 10:27:35;;;;;;;1.30;1.00;;;;;;;32.92;23.12;100797.73;106247;1257;60456;-89
2023/06/01 10:30:04;;;;;;;2.40;1.40;;;;;;;32.96;23.44;100792.34;106148;1253;73951;-88
2023/06/01 10:32:46;;;;;;;2.10;1.50;;;;;;;33.00;23.18;100791.20;105895;1259;64297;-88
2023/06/01 10:35:42;;;;;;;1.30;1.20;;;;;;;33.04;24.09;100794.83;108279;1257;71437;-89
2023/06/01 10:38:12;;;;;;;3.40;1.30;;;;;;;33.10;23.82;100791.64;108676;1257;60400;-88
2023/06/01 10:40:41;;;;;;;1.60;1.30;;;;;;;33.04;23.27;100793.19;108808;1260;61706;-87
2023/06/01 10:43:37;;;;;;;4.50;3.30;;;;;;;33.02;23.33;100790.75;108831;1257;72658;-89
2023/06/01 10:46:34;;;;;;;4.10;3.00;;;;;;;33.16;24.15;100788.14;108957;1257;62822;-89
2023/06/01 10:49:03;;;;;;;1.20;1.00;;;;;;;33.24;24.22;100786.31;108755;1260;71278;-88
2023/06/01 10:51:31;;;;;;;2.30;1.10;;;;;;;33.34;23.53;100782.66;109040;1257;59124;-90
2023/06/01 10:54:23;;;;;;;2.80;1.20;;;;;;;33.39;23.11;100779.08;109234;1262;59128;-87
2023/06/01 10:57:21;;;;;;;1.70;1.40;;;;;;;33.42;23.81;100776.75;109025;1257;72357;-88
2023/06/01 11:00:26;;;;;;;4.50;2.10;;;;;;;33.53;23.24;100776.21;108721;1258;62990;-87
2023/06/01 11:03:02;;;;;;;1.70;1.20;;;;;;;33.50;23.77;100773.64;108254;1257;71068;-89
2023/06/01 11:05:48;;;;;;;1.60;1.50;;;;;;;33.51;23.52;100766.48;107024;1262;60466;-86
2023/06/01 11:08:19;;;;;;;1.30;1.00;;;;;;;33.39;22.69;100769.84;106611;1259;60535;-88
2023/06/01 11:13:31;;;;;;;5.80;1.10;;;;;;;33.10;23.48;100764.48;106143;1262;64054;-85
2023/06/01 11:18:43;;;;;;;2.50;0.90;;;;;;;32.97;24.16;100756.41;103765;1282;616234;-88
2023/06/01 11:21:16;;;;;;;4.90;2.20;;;;;;;32.74;23.53;100753.68;105743;1265;62649;-86
2023/06/01 11:23:45;;;;;;;2.30;1.20;;;;;;;32.53;23.58;100749.55;105527;1266;60397;-87
2023/06/01 11:26:17;;;;;;;5.80;1.30;;;;;;;32.29;24.15;100743.94;106113;1268;72224;-86
2023/06/01 11:29:11;;;;;;;2.90;0.80;;;;;;;32.07;24.88;100744.59;106104;1271;64004;-86
2023/06/01 11:31:48;;;;;;;2.20;1.80;;;;;;;31.86;25.04;100738.84;105379;1269;241572;-86
2023/06/01 11:34:20;;;;;;;6.10;2.20;;;;;;;31.54;24.57;100735.84;105605;1268;60619;-88
2023/06/01 11:36:50;;;;;;;10.20;6.50;;;;;;;31.13;25.67;100733.76;105539;1263;59744;-89
2023/06/01 11:39:20;;;;;;;15.30;10.80;;;;;;;30.74;25.68;100736.34;105573;1263;70867;-88
2023/06/01 11:41:49;;;;;;;3.90;2.20;;;;;;;30.23;25.49;100738.18;105628;1263;62361;-86
2023/06/01 11:44:16;;;;;;;4.80;1.30;;;;;;;29.85;26.07;100733.84;105554;1269;72701;-86
2023/06/01 11:47:01;;;;;;;4.80;1.40;;;;;;;29.65;26.76;100732.38;105473;1268;60116;-87